U.S. Weather Extremes for
Sunday, June 17, 2018

High Temperature


101°F at Mcallen/Miller Intl, TX

Low Temperature


34°F at Mammoth/June Lakes, CA

High Precipitation


5.83in at Hancock/Houghton Co, MI


Data for lower 48 states and courtesy of
NWS-CPC

North Georgia & Southern Appalachians METAR Reports

KDZJ - Blairsville, Georgia, USA
Distance from station: NNW 11mi, 18km
Updated: Mon, 18-Jun-2018 11:55am CDT
Clear
Clear
 Wind from NW
Wind:
NW 3 mph 6 km/h
Temperature: 84°F , 29°C
Heat Index: 87°F , 31°C
Dew Point: 68°F , 20°C
Humidity: 58%
Barometer: 30.22 inHg , 1023.4 hPa
Clouds: Clear
Visibility: 10 miles , 16 km
2018/06/18 16:55 KDZJ 181655Z AUTO 31003KT 10SM CLR 29/20 A3022 RMK AO2 T02880202
KAJR - Cornelia, Georgia, USA
Distance from station: SE 25mi, 41km
Updated: Mon, 18-Jun-2018 11:55am CDT
Mostly Cloudy
Mostly Cloudy
 Wind from calm
Wind:
Calm
Temperature: 86°F , 30°C
Heat Index: 95°F , 35°C
Dew Point: 75°F , 24°C
Humidity: 70%
Barometer: 30.18 inHg , 1022 hPa
Clouds: Mostly Cloudy
Visibility: 10 miles , 16 km
Cloud details: Mostly Cloudy 4200 ft
2018/06/18 16:55 KAJR 181655Z AUTO 00000KT 10SM BKN042 30/24 A3018 RMK AO2 T03010235
 
KGVL - Gainesville, Georgia, USA
Distance from station: S 31mi, 50km
Updated: Mon, 18-Jun-2018 11:53am CDT
Few Clouds
Few Clouds
 Wind from NW
Wind:
NW 7 mph 11 km/h
Temperature: 88°F , 31°C
Heat Index: 93°F , 34°C
Dew Point: 70°F , 21°C
Humidity: 55%
Barometer: 30.18 inHg , 1022 hPa
Clouds: Few Clouds
Visibility: 10 miles , 16 km
Cloud details: Few Clouds 3900 ft
2018/06/18 16:53 KGVL 181653Z AUTO 31006KT 10SM FEW039 31/21 A3018 RMK AO2 SLP203 T03060211
KRHP - Andrews, North Carolina, USA
Distance from station: N 33mi, 53km
Updated: Mon, 18-Jun-2018 11:35am CDT
Partly Cloudy
Partly Cloudy
 Wind from calm
Wind:
Calm
Temperature: 86°F , 30°C
Heat Index: 91°F , 33°C
Dew Point: 70°F , 21°C
Humidity: 59%
Barometer: 30.20 inHg , 1022.7 hPa
Clouds: Partly Cloudy
Visibility: 10 miles , 16 km
Cloud details: Partly Cloudy 4100 ft
2018/06/18 16:35 KRHP 181635Z AUTO 00000KT 10SM SCT041 30/21 A3020 RMK AO2 T02960212
 
KJZP - Jasper, Georgia, USA
Distance from station: WSW 35mi, 57km
Updated: Mon, 18-Jun-2018 11:55am CDT
Clear
Clear
 Wind from N
Wind:
N 8 mph 13 km/h
Temperature: -35°F , -37°C
Wind Chill: -57°F , -49°C
Dew Point: -45°F , -43°C
Humidity: 53%
Barometer: 30.22 inHg , 1023.4 hPa
Clouds: Clear
Visibility: 10 miles , 16 km
2018/06/18 16:55 KJZP 181655Z AUTO 35007KT 10SM CLR M37/M43 A3022 RMK AO2 T13711427 PNO
KTOC - Toccoa, Georgia, USA
Distance from station: E 36mi, 58km
Updated: Mon, 18-Jun-2018 11:55am CDT
Partly Cloudy
Partly Cloudy
 Wind from calm
Wind:
Calm
Temperature: 91°F , 33°C
Heat Index: 98°F , 37°C
Dew Point: 72°F , 22°C
Humidity: 52%
Barometer: 30.15 inHg , 1021 hPa
Clouds: Partly Cloudy
Visibility: 10 miles , 16 km
Cloud details: Partly Cloudy 4000 ft
2018/06/18 16:55 KTOC 181655Z AUTO 00000KT 10SM SCT040 33/22 A3015 RMK AO2 T03320224
 
KCNI - Canton/Cherokee, Georgia, USA
Distance from station: SW 39mi, 63km
Updated: Mon, 18-Jun-2018 11:55am CDT
Clear
Clear
 Wind from calm
Wind:
Calm
Temperature: 88°F , 31°C
Heat Index: 89°F , 32°C
Dew Point: 63°F , 17°C
Humidity: 43%
Barometer: 30.18 inHg , 1022 hPa
Clouds: Clear
Visibility: 10 miles , 16 km
2018/06/18 16:55 KCNI 181655Z AUTO 00000KT 10SM CLR 31/17 A3018 RMK AO2
KJCA - Jefferson, Georgia, USA
Distance from station: SSE 41mi, 67km
Updated: Mon, 18-Jun-2018 11:55am CDT
Partly Cloudy
Partly Cloudy
 Wind from calm
Wind:
Calm
Temperature: 88°F , 31°C
Heat Index: 92°F , 33°C
Dew Point: 68°F , 20°C
Humidity: 52%
Barometer: 30.16 inHg , 1021.3 hPa
Clouds: Partly Cloudy
Visibility: 10 miles , 16 km
Cloud details: Partly Cloudy 4300 ft
2018/06/18 16:55 KJCA 181655Z AUTO 00000KT 10SM SCT043 31/20 A3016 RMK AO2 T03120202
 
K1A5 - Macon/Franklin, North Carolina, USA
Distance from station: NE 45mi, 73km
Updated: Mon, 18-Jun-2018 11:55am CDT
Clear
Clear
 Wind from calm
Wind:
Calm
Temperature: 82°F , 28°C
Heat Index: 86°F , 30°C
Dew Point: 70°F , 21°C
Humidity: 66%
Barometer: 30.22 inHg , 1023.4 hPa
Clouds: Clear
Visibility: 10 miles , 16 km
2018/06/18 16:55 K1A5 181655Z AUTO 00000KT 10SM CLR 28/21 A3022 RMK AO2 T02810206
KLZU - Lawrenceville, Georgia, USA
Distance from station: S 50mi, 81km
Updated: Mon, 18-Jun-2018 11:56am CDT
Mostly Cloudy
Mostly Cloudy
 Wind from varies
Wind:
varies 3 mph 6 km/h
Temperature: 88°F , 31°C
Heat Index: 96°F , 36°C
Dew Point: 73°F , 23°C
Humidity: 62%
Barometer: 30.16 inHg , 1021.3 hPa
Clouds: Mostly Cloudy
Visibility: 10 miles , 16 km
Cloud details: Mostly Cloudy 4700 ft
2018/06/18 16:56 KLZU 181656Z VRB03KT 10SM BKN047 31/23 A3016 RMK AO2 SLP212 T03110228
 
K18A - Canon/Franklin, Georgia, USA
Distance from station: ESE 51mi, 82km
Updated: Mon, 18-Jun-2018 11:55am CDT
Clear
Clear
 Wind from calm
Wind:
Calm
Temperature: 90°F , 32°C
Heat Index: 96°F , 36°C
Dew Point: 70°F , 21°C
Humidity: 52%
Barometer: 30.15 inHg , 1021 hPa
Clouds: Clear
Visibility: 10 miles , 16 km
2018/06/18 16:55 K18A 181655Z AUTO 00000KT 10SM CLR 32/21 A3015 RMK AO2 T03160214
KWDR - Winder/Barrow, Georgia, USA
Distance from station: SSE 52mi, 84km
Updated: Mon, 18-Jun-2018 11:55am CDT
Clear
Clear
 Wind from calm
Wind:
Calm
Temperature: 88°F , 31°C
Heat Index: 93°F , 34°C
Dew Point: 70°F , 21°C
Humidity: 55%
Barometer: 30.18 inHg , 1022 hPa
Clouds: Clear
Visibility: 10 miles , 16 km
2018/06/18 16:55 KWDR 181655Z AUTO 00000KT 10SM CLR 31/21 A3018 RMK AO1
 
KDNN - Dalton, Georgia, USA
Distance from station: W 54mi, 87km
Updated: Mon, 18-Jun-2018 11:55am CDT
Clear
Clear
 Wind from NNE
Wind:
NNE 5 mph 7 km/h
Temperature: 86°F , 30°C
Heat Index: 92°F , 33°C
Dew Point: 72°F , 22°C
Humidity: 62%
Barometer: 30.18 inHg , 1022 hPa
Clouds: Clear
Visibility: 10 miles , 16 km
2018/06/18 16:55 KDNN 181655Z AUTO 02004KT 10SM CLR 30/22 A3018 RMK AO2
K24A - Sylva, North Carolina, USA
Distance from station: NE 58mi, 93km
Updated: Sun, 17-Jun-2018 3:25pm CDT
NOT Current
Thunderstorm, Mostly cloudy
Thunderstorm, Mostly cloudy
 Wind from NE
Wind:
NE 6 mph 9 km/h
Temperature: 70°F , 21°C
Dew Point: 64°F , 18°C
Humidity: 83%
Barometer: 30.26 inHg , 1024.7 hPa
Summary: Thunderstorm
Clouds: Mostly Cloudy
Visibility: 10 miles , 16 km
Cloud details: Partly Cloudy 6000 ft
Mostly Cloudy 7000 ft
Mostly Cloudy 11000 ft
2018/06/17 20:25 K24A 172025Z AUTO 04005KT 10SM TS SCT060 BKN070 BKN110 21/18 A3026 RMK AO2 LTG DSNT ALQDS T02060177
 
KCEU - Clemson, South Carolina, USA
Distance from station: E 59mi, 95km
Updated: Mon, 18-Jun-2018 11:54am CDT
Mostly Cloudy
Mostly Cloudy
 Wind from calm
Wind:
Calm
Temperature: 86°F , 30°C
Heat Index: 91°F , 33°C
Dew Point: 70°F , 21°C
Humidity: 59%
Barometer: 30.15 inHg , 1021 hPa
Clouds: Mostly Cloudy
Visibility: 10 miles , 16 km
Cloud details: Mostly Cloudy 3800 ft
2018/06/18 16:54 KCEU 181654Z AUTO 00000KT 10SM BKN038 30/21 A3015 RMK AO2 SLP199 T03000211
KMMI - Athens/Mcminn, Tennessee, USA
Distance from station: NW 60mi, 97km
Updated: Mon, 18-Jun-2018 11:55am CDT
Clear
Clear
 Wind from varies
Wind:
varies 5 mph 7 km/h
Temperature: 86°F , 30°C
Heat Index: 91°F , 33°C
Dew Point: 70°F , 21°C
Humidity: 59%
Barometer: 30.18 inHg , 1022 hPa
Clouds: Clear
Visibility: 10 miles , 16 km
2018/06/18 16:55 KMMI 181655Z AUTO VRB04KT 10SM CLR 30/21 A3018 RMK A01
 
KCZL - Calhoun, Georgia, USA
Distance from station: WSW 61mi, 97km
Updated: Fri, 18-May-2018 6:55pm CDT
NOT Current
Clear
Clear
 Wind from calm
Wind:
Calm
Temperature: 75°F , 24°C
Dew Point: 66°F , 19°C
Humidity: 74%
Barometer: 29.89 inHg , 1012.2 hPa
Clouds: Clear
Visibility: 10 miles , 16 km
2018/05/18 23:55 KCZL 182355Z AUTO 00000KT 10SM CLR 24/19 A2989 RMK AO2 T02360194 10296 20236
KPDK - Peachtree/Dekalb, Georgia, USA
Distance from station: SSW 61mi, 98km
Updated: Mon, 18-Jun-2018 11:53am CDT
Partly Cloudy
Partly Cloudy
 Wind from varies
Wind:
varies 5 mph 7 km/h
Temperature: 88°F , 31°C
Heat Index: 93°F , 34°C
Dew Point: 70°F , 21°C
Humidity: 55%
Barometer: 30.15 inHg , 1021 hPa
Clouds: Partly Cloudy
Visibility: 10 miles , 16 km
Cloud details: Partly Cloudy 3800 ft
2018/06/18 16:53 KPDK 181653Z VRB04KT 10SM SCT038 31/21 A3015 RMK AO2 SLP191 T03110206
 
KRZR - Cleveland Reg., Tennessee, USA
Distance from station: NW 61mi, 98km
Updated: Mon, 18-Jun-2018 11:55am CDT
Clear
Clear
 Wind from SE
Wind:
SE 6 mph 9 km/h
Temperature: 88°F , 31°C
Heat Index: 93°F , 34°C
Dew Point: 70°F , 21°C
Humidity: 55%
Barometer: 30.15 inHg , 1021 hPa
Clouds: Clear
Visibility: 10 miles , 16 km
2018/06/18 16:55 KRZR 181655Z AUTO 13005KT 10SM CLR 31/21 A3015 RMK A01
KRYY - Marietta Mccolum, Georgia, USA
Distance from station: SW 62mi, 99km
Updated: Mon, 18-Jun-2018 11:48am CDT
Clear
Clear
 Wind from WNW
Wind:
WNW 9 mph 15 km/h
Temperature: 86°F , 30°C
Heat Index: 91°F , 33°C
Dew Point: 70°F , 21°C
Humidity: 59%
Barometer: 30.17 inHg , 1021.7 hPa
Clouds: Clear
Visibility: 10 miles , 16 km
2018/06/18 16:48 KRYY 181648Z 30008KT 10SM CLR 30/21 A3017 RMK AO2 SLP937 T03000211

Metar display script from Saratoga-Weather.org